KSBY/SBY METAR and TAF weather

Enter ICAO airport designator
Station Type Date Time Source
KSBY METAR 2019/04/18 21:54 UTC NOAA

KSBY 182154Z 18014G19KT 10SM CLR 24/13 A2991 RMK AO2 SLP132 T02440133


Station Type Date Time Source
KSBY Decoded METAR 2019/04/18 21:54 UTC NOAA

SALISBURY-WICOMICO CTY REG, MD, United States (KSBY) 38-20N 075-30W 19M
Apr 18, 2019 - 05:54 PM EDT / 2019.04.18 2154 UTC
Wind: from the S (180 degrees) at 16 MPH (14 KT) gusting to 22 MPH (19 KT):0
Visibility: 10 mile(s):0
Sky conditions: clear
Temperature: 75.9 F (24.4 C)
Dew Point: 55.9 F (13.3 C)
Relative Humidity: 49%
Pressure (altimeter): 29.91 in. Hg (1012 hPa)
ob: KSBY 182154Z 18014G19KT 10SM CLR 24/13 A2991 RMK AO2 SLP132 T02440133
cycle: 22

Station Type Date Time Source
KSBY TAF 2019/04/18 19:28 UTC NOAA

TAF
AMD KSBY 181926Z 1819/1918 20015G25KT P6SM SCT250
FM190100 18011G18KT P6SM SCT120
FM190700 19012G19KT P6SM BKN100
FM191100 18014G22KT P6SM OVC050
FM191400 19016G25KT P6SM OVC020
FM191700 19019G30KT P6SM OVC025

Example: see airport list